Accueil
METAR-TAF:

METAR-TAF

Aéroports :

Siegen, Allemagne

latitude: 50-42-28N, longitude: 008-04-59E, altitude: 602 m

Observation

Le bulletin a été fait il y a 8 heures et 37 minutes, à 18:50 UTC
Vent 7 kt de sud
Température 13°C
Humidité 88%
Pression 1015 hPa
Visibilité 10 km ou plus
pas de nuages en-dessous de 1500 mètres et pas de cumulonimbus.

METAR: EDGS 181850Z 19007KT CAVOK 13/11 Q1015

Heure: 05:27 (03:27 UTC)

Prévision

Le bulletin a été fait il y a 10 heures et 27 minutes, à 17:00 UTC
Prévision valable du 18 à 18 UTC au 19 à 03 UTC
Vent 3 kt de direction variable
Visibilité 10 km ou plus
pas de nuages en-dessous de 1500 mètres et pas de cumulonimbus.
Evoluant progressivement
du 18 à 18 UTC au 18 à 20 UTC
Vent 6 kt de sud
Temporairement
du 18 à 23 UTC au 19 à 03 UTC
Visibilité: 3500 m
brume

TAF: EDGS 181700Z 1818/1903 VRB03KT CAVOK BECMG 1818/1820 18006KT TEMPO 1823/1903 3500 BR

Observations et prévisions météorologiques de plus de 4000 aéroports (messages METAR et TAF).

Les stations disponibles sont représentées par des disques jaunes et rouges sur la carte.

Passer la souris dessus pour voir le nom de la station.

Cliquer dessus pour voir les observations et prévisions météorologiques.

Pour changer de carte: cliquez sur les boutons verts avec une croix noire pour zoomer, sur le bouton vert avec un tiret pour effectuer un zoom arrière, ou sur les flèches vertes pour les cartes adjacentes.


METAR-TAF: